Time;durP1;ratioP1;P1;durP2;ratioP2;P2;SDS_P1;SDS_P2;PMS_P1;PMS_P2;Temp;Humidity;BMP_temperature;BMP_pressure;BME280_temperature;BME280_humidity;BME280_pressure;Samples;Min_cycle;Max_cycle;Signal;HPM_P1;HPM_P2
2023/04/03 00:00:42;;;;;;;1.42;1.05;;;;;;;;;;4857280;29;20037;-95
2023/04/03 00:03:08;;;;;;;9.38;1.00;;;;;;;;;;4869074;29;20025;-94
2023/04/03 00:05:34;;;;;;;1.95;0.90;;;;;;;;;;4870192;29;20036;-95
2023/04/03 00:08:07;;;;;;;2.30;1.10;;;;;;;;;;4889724;29;20041;-95
2023/04/03 00:10:36;;;;;;;1.63;0.90;;;;;;;;;;4871941;29;20061;-94
2023/04/03 00:13:02;;;;;;;2.97;0.73;;;;;;;;;;4882440;29;20571;-95
2023/04/03 00:15:32;;;;;;;2.83;0.80;;;;;;;;;;4884090;29;20059;-95
2023/04/03 00:17:58;;;;;;;3.97;2.00;;;;;;;;;;4875041;29;20025;-95
2023/04/03 00:20:33;;;;;;;1.52;0.90;;;;;;;;;;4877882;29;20526;-95
2023/04/03 00:22:59;;;;;;;2.78;1.30;;;;;;;;;;4867956;29;20034;-96
2023/04/03 00:25:33;;;;;;;2.25;1.13;;;;;;;;;;4874388;29;20041;-95
2023/04/03 00:28:00;;;;;;;3.20;0.73;;;;;;;;;;4871942;29;20033;-96
2023/04/03 00:30:34;;;;;;;3.88;0.77;;;;;;;;;;4866903;29;20064;-95
2023/04/03 00:33:01;;;;;;;4.85;1.13;;;;;;;;;;4868513;29;20067;-95
2023/04/03 00:35:28;;;;;;;2.13;1.02;;;;;;;;;;4870574;29;20045;-95
2023/04/03 00:37:55;;;;;;;2.45;0.90;;;;;;;;;;4871230;29;20051;-95
2023/04/03 00:40:22;;;;;;;3.03;1.05;;;;;;;;;;4873633;29;20069;-95
2023/04/03 00:42:51;;;;;;;5.07;1.10;;;;;;;;;;4876306;29;20024;-95
2023/04/03 00:45:25;;;;;;;8.05;1.40;;;;;;;;;;4869709;29;20086;-96
2023/04/03 00:47:51;;;;;;;2.53;0.95;;;;;;;;;;4874159;29;20517;-96
2023/04/03 00:50:18;;;;;;;1.10;0.85;;;;;;;;;;4880758;29;20165;-96
2023/04/03 00:52:47;;;;;;;4.90;1.38;;;;;;;;;;4882696;29;20043;-96
2023/04/03 00:55:16;;;;;;;4.70;1.15;;;;;;;;;;4884848;29;20040;-96
2023/04/03 00:57:43;;;;;;;6.82;1.25;;;;;;;;;;4854317;29;20033;-96
2023/04/03 01:00:12;;;;;;;4.78;0.93;;;;;;;;;;4869729;29;20053;-96
2023/04/03 01:02:45;;;;;;;4.50;1.00;;;;;;;;;;4868140;29;20025;-95
2023/04/03 01:05:11;;;;;;;4.50;1.00;;;;;;;;;;4863792;29;20036;-96
2023/04/03 01:07:38;;;;;;;6.85;1.05;;;;;;;;;;4870710;29;20089;-96
2023/04/03 01:10:07;;;;;;;5.18;1.10;;;;;;;;;;4857080;29;20079;-96
2023/04/03 01:12:37;;;;;;;4.78;1.27;;;;;;;;;;4874165;29;20061;-95
2023/04/03 01:15:07;;;;;;;2.33;0.82;;;;;;;;;;4907694;29;20042;-96
2023/04/03 01:17:41;;;;;;;7.53;1.90;;;;;;;;;;4872964;29;20414;-96
2023/04/03 01:20:11;;;;;;;4.93;1.35;;;;;;;;;;4867102;29;20360;-96
2023/04/03 01:22:44;;;;;;;3.97;1.40;;;;;;;;;;4883094;29;20041;-96
2023/04/03 01:25:10;;;;;;;3.60;1.20;;;;;;;;;;4914676;29;20186;-95
2023/04/03 01:27:41;;;;;;;5.05;1.25;;;;;;;;;;4900976;29;20041;-95
2023/04/03 01:30:07;;;;;;;3.80;1.17;;;;;;;;;;4866154;29;20048;-95
2023/04/03 01:32:36;;;;;;;5.75;1.00;;;;;;;;;;4885215;29;20037;-96
2023/04/03 01:35:04;;;;;;;2.50;1.05;;;;;;;;;;4884147;29;20104;-96
2023/04/03 01:37:39;;;;;;;4.25;1.20;;;;;;;;;;4874781;29;20106;-95
2023/04/03 01:40:06;;;;;;;2.15;0.90;;;;;;;;;;4853891;29;20029;-96
2023/04/03 01:42:32;;;;;;;2.63;1.13;;;;;;;;;;4897256;29;20530;-95
2023/04/03 01:44:58;;;;;;;8.25;1.58;;;;;;;;;;4879486;29;20429;-95
2023/04/03 01:47:24;;;;;;;3.95;1.30;;;;;;;;;;4874861;29;20034;-96
2023/04/03 01:49:52;;;;;;;4.95;1.65;;;;;;;;;;4868831;29;20071;-95
2023/04/03 01:52:22;;;;;;;8.15;1.33;;;;;;;;;;4869772;29;20053;-96
2023/04/03 01:54:48;;;;;;;2.70;1.00;;;;;;;;;;4888566;29;20033;-96
2023/04/03 01:57:15;;;;;;;6.82;1.67;;;;;;;;;;4880915;29;20057;-96
2023/04/03 01:59:42;;;;;;;5.18;1.40;;;;;;;;;;4883213;29;20498;-95
2023/04/03 02:02:12;;;;;;;4.72;1.40;;;;;;;;;;4913346;29;20064;-95
2023/04/03 02:04:47;;;;;;;10.05;1.75;;;;;;;;;;4870166;29;20041;-96
2023/04/03 02:07:13;;;;;;;9.80;1.45;;;;;;;;;;4884564;29;20036;-95
2023/04/03 02:09:41;;;;;;;4.30;1.60;;;;;;;;;;4873731;29;20048;-96
2023/04/03 02:12:07;;;;;;;12.88;1.45;;;;;;;;;;4864939;29;20068;-96
2023/04/03 02:14:34;;;;;;;8.20;1.35;;;;;;;;;;4883243;29;20053;-96
2023/04/03 02:17:08;;;;;;;4.38;1.40;;;;;;;;;;4869513;29;20461;-95
2023/04/03 02:19:34;;;;;;;4.03;1.27;;;;;;;;;;4856773;29;20077;-96
2023/04/03 02:22:00;;;;;;;8.70;1.10;;;;;;;;;;4881602;29;20028;-96
2023/04/03 02:24:27;;;;;;;4.35;1.60;;;;;;;;;;4865227;29;20044;-96
2023/04/03 02:26:53;;;;;;;11.32;1.67;;;;;;;;;;4852152;29;20141;-96
2023/04/03 02:29:21;;;;;;;7.75;2.55;;;;;;;;;;4872446;29;20506;-96
2023/04/03 02:31:47;;;;;;;4.50;1.33;;;;;;;;;;4878841;29;20517;-96
2023/04/03 02:34:13;;;;;;;2.17;1.35;;;;;;;;;;4859804;29;20434;-96
2023/04/03 02:36:40;;;;;;;4.70;1.27;;;;;;;;;;4858071;29;20044;-96
2023/04/03 02:39:07;;;;;;;6.63;1.50;;;;;;;;;;4870719;29;20052;-96
2023/04/03 02:41:42;;;;;;;8.13;1.48;;;;;;;;;;4858326;29;20036;-96
2023/04/03 02:44:10;;;;;;;5.20;1.60;;;;;;;;;;4879839;29;20461;-96
2023/04/03 02:46:36;;;;;;;9.13;1.70;;;;;;;;;;4876339;29;20537;-96
2023/04/03 02:49:03;;;;;;;4.15;1.58;;;;;;;;;;4864214;29;20033;-96
2023/04/03 02:51:29;;;;;;;5.13;1.70;;;;;;;;;;4884504;29;20028;-96
2023/04/03 02:53:55;;;;;;;9.80;1.50;;;;;;;;;;4868198;29;20048;-96
2023/04/03 02:56:21;;;;;;;10.85;1.92;;;;;;;;;;4876394;29;20037;-96
2023/04/03 02:58:48;;;;;;;8.68;1.80;;;;;;;;;;4885863;29;20073;-95
2023/04/03 03:01:15;;;;;;;12.52;2.03;;;;;;;;;;4873988;29;20029;-94
2023/04/03 03:03:42;;;;;;;4.28;1.63;;;;;;;;;;4884811;29;20032;-96
2023/04/03 03:06:11;;;;;;;4.07;1.73;;;;;;;;;;4869760;29;20028;-95
2023/04/03 03:08:37;;;;;;;4.47;1.33;;;;;;;;;;4882086;29;20040;-94
2023/04/03 03:11:04;;;;;;;6.05;2.47;;;;;;;;;;4895684;28;20304;-95
2023/04/03 03:13:31;;;;;;;6.32;1.70;;;;;;;;;;4908096;29;20060;-96
2023/04/03 03:15:57;;;;;;;8.05;1.75;;;;;;;;;;4893550;29;20029;-95
2023/04/03 03:18:24;;;;;;;10.63;1.10;;;;;;;;;;4893186;29;20043;-95
2023/04/03 03:20:56;;;;;;;5.25;2.00;;;;;;;;;;4876719;29;20048;-95
2023/04/03 03:23:23;;;;;;;5.30;1.98;;;;;;;;;;4902628;29;20056;-96
2023/04/03 03:25:50;;;;;;;5.72;2.03;;;;;;;;;;4883036;29;20030;-96
2023/04/03 03:28:16;;;;;;;4.22;1.63;;;;;;;;;;4887772;29;20032;-96
2023/04/03 03:30:42;;;;;;;6.32;1.90;;;;;;;;;;4884169;29;20052;-95
2023/04/03 03:33:09;;;;;;;9.05;1.67;;;;;;;;;;4872257;29;20454;-96
2023/04/03 03:35:37;;;;;;;7.40;2.08;;;;;;;;;;4876691;29;20572;-96
2023/04/03 03:38:03;;;;;;;5.10;2.08;;;;;;;;;;4873259;29;20104;-95
2023/04/03 03:40:29;;;;;;;3.95;1.35;;;;;;;;;;4876983;29;20039;-95
2023/04/03 03:42:55;;;;;;;4.65;1.58;;;;;;;;;;4867513;29;20040;-95
2023/04/03 03:45:22;;;;;;;6.43;1.88;;;;;;;;;;4884358;29;20068;-94
2023/04/03 03:47:55;;;;;;;5.65;1.65;;;;;;;;;;4873339;29;20040;-95
2023/04/03 03:50:21;;;;;;;2.90;1.40;;;;;;;;;;4871333;29;20486;-96
2023/04/03 03:52:47;;;;;;;2.53;1.30;;;;;;;;;;4889851;29;20039;-95
2023/04/03 03:55:13;;;;;;;3.25;1.40;;;;;;;;;;4898361;29;20040;-95
2023/04/03 03:57:42;;;;;;;4.80;2.05;;;;;;;;;;4889358;29;20037;-96
2023/04/03 04:00:10;;;;;;;7.50;1.95;;;;;;;;;;4873401;29;20031;-95
2023/04/03 04:02:37;;;;;;;3.70;1.52;;;;;;;;;;4882848;29;20043;-96
2023/04/03 04:05:03;;;;;;;8.50;1.98;;;;;;;;;;4890324;29;20036;-96
2023/04/03 04:07:32;;;;;;;8.13;2.08;;;;;;;;;;4894117;29;20035;-96
2023/04/03 04:09:58;;;;;;;6.65;2.15;;;;;;;;;;4895734;29;20060;-95
2023/04/03 04:12:24;;;;;;;11.68;2.10;;;;;;;;;;4876238;29;20052;-96
2023/04/03 04:14:51;;;;;;;9.10;1.83;;;;;;;;;;4920474;29;20116;-96
2023/04/03 04:17:17;;;;;;;12.43;2.17;;;;;;;;;;4877658;29;20059;-96
2023/04/03 04:19:44;;;;;;;12.85;2.35;;;;;;;;;;4890127;29;20036;-95
2023/04/03 04:22:12;;;;;;;8.35;2.22;;;;;;;;;;4893821;29;20036;-96
2023/04/03 04:24:38;;;;;;;5.00;2.10;;;;;;;;;;4878882;29;20020;-96
2023/04/03 04:27:04;;;;;;;8.82;2.33;;;;;;;;;;4875865;29;20517;-95
2023/04/03 04:29:35;;;;;;;5.63;1.80;;;;;;;;;;4888117;29;20045;-95
2023/04/03 04:32:02;;;;;;;8.52;1.75;;;;;;;;;;4890596;29;20662;-95
2023/04/03 04:34:29;;;;;;;8.68;1.90;;;;;;;;;;4887393;29;20043;-94
2023/04/03 04:36:55;;;;;;;7.13;2.22;;;;;;;;;;4871521;29;20096;-95
2023/04/03 04:39:21;;;;;;;10.23;2.55;;;;;;;;;;4888952;29;20040;-95
2023/04/03 04:41:49;;;;;;;9.13;1.85;;;;;;;;;;4877694;29;20033;-94
2023/04/03 04:44:15;;;;;;;10.02;2.15;;;;;;;;;;4912044;29;20045;-93
2023/04/03 04:46:41;;;;;;;9.70;2.47;;;;;;;;;;4905916;29;20028;-94
2023/04/03 04:49:07;;;;;;;5.90;2.20;;;;;;;;;;4875738;29;20033;-94
2023/04/03 04:51:34;;;;;;;5.93;2.10;;;;;;;;;;4874229;29;20028;-95
2023/04/03 04:54:00;;;;;;;7.63;2.90;;;;;;;;;;4886334;29;20047;-95
2023/04/03 04:56:26;;;;;;;8.38;2.45;;;;;;;;;;4879121;29;20037;-95
2023/04/03 04:58:53;;;;;;;8.77;1.80;;;;;;;;;;4892692;29;20092;-95
2023/04/03 05:01:20;;;;;;;8.05;2.25;;;;;;;;;;4876784;29;20025;-95
2023/04/03 05:03:47;;;;;;;11.25;3.22;;;;;;;;;;4872605;29;20057;-93
2023/04/03 05:06:15;;;;;;;12.43;2.63;;;;;;;;;;4903713;29;20028;-94
2023/04/03 05:08:43;;;;;;;12.55;2.95;;;;;;;;;;4893150;29;20039;-93
2023/04/03 05:11:09;;;;;;;12.75;2.78;;;;;;;;;;4890637;29;20052;-94
2023/04/03 05:13:35;;;;;;;7.90;2.20;;;;;;;;;;4884997;29;20037;-94
2023/04/03 05:16:01;;;;;;;10.02;2.83;;;;;;;;;;4874752;29;20105;-94
2023/04/03 05:18:27;;;;;;;7.20;2.50;;;;;;;;;;4878966;29;20068;-93
2023/04/03 05:20:54;;;;;;;10.43;2.72;;;;;;;;;;4879944;29;20044;-95
2023/04/03 05:23:20;;;;;;;16.88;2.72;;;;;;;;;;4888485;29;20028;-94
2023/04/03 05:25:46;;;;;;;12.82;3.47;;;;;;;;;;4876241;29;20033;-95
2023/04/03 05:28:13;;;;;;;7.18;2.33;;;;;;;;;;4881138;29;20028;-95
2023/04/03 05:30:39;;;;;;;12.20;3.03;;;;;;;;;;4902048;29;20489;-95
2023/04/03 05:33:05;;;;;;;13.88;2.83;;;;;;;;;;4901377;29;20029;-95
2023/04/03 05:35:32;;;;;;;11.30;2.88;;;;;;;;;;4885452;29;20028;-96
2023/04/03 05:37:58;;;;;;;12.75;2.50;;;;;;;;;;4884704;29;20033;-95
2023/04/03 05:40:37;;;;;;;10.82;2.80;;;;;;;;;;4890667;29;20079;-95
2023/04/03 05:43:03;;;;;;;8.85;2.78;;;;;;;;;;4899765;29;20468;-95
2023/04/03 05:45:37;;;;;;;10.85;2.67;;;;;;;;;;4914467;29;20548;-94
2023/04/03 05:48:10;;;;;;;7.63;2.90;;;;;;;;;;4897725;28;20049;-95
2023/04/03 05:50:41;;;;;;;10.35;2.70;;;;;;;;;;4902005;23;20509;-86
2023/04/03 05:53:16;;;;;;;10.10;3.05;;;;;;;;;;4858213;29;20044;-87
2023/04/03 05:55:43;;;;;;;10.90;2.80;;;;;;;;;;4860377;29;20032;-87
2023/04/03 05:58:10;;;;;;;7.60;2.50;;;;;;;;;;4834345;29;20045;-87
2023/04/03 06:00:36;;;;;;;4.10;2.03;;;;;;;;;;4861269;29;20488;-88
2023/04/03 06:03:02;;;;;;;12.43;3.00;;;;;;;;;;4860744;29;20468;-88
2023/04/03 06:05:32;;;;;;;4.93;1.88;;;;;;;;;;4844266;29;20123;-91
2023/04/03 06:08:00;;;;;;;15.98;2.40;;;;;;;;;;4844749;29;20065;-90
2023/04/03 06:10:30;;;;;;;8.65;2.38;;;;;;;;;;4860204;29;20537;-94
2023/04/03 06:12:56;;;;;;;9.90;2.35;;;;;;;;;;4886762;29;20052;-92
2023/04/03 06:15:29;;;;;;;14.77;2.25;;;;;;;;;;4852774;29;20177;-89
2023/04/03 06:18:02;;;;;;;7.15;2.35;;;;;;;;;;4859478;29;20033;-91
2023/04/03 06:20:39;;;;;;;;;;;;;;;;;;;;;
2023/04/03 06:23:11;;;;;;;7.30;2.90;;;;;;;;;;4861023;29;20105;-92
2023/04/03 06:25:49;;;;;;;7.30;2.05;;;;;;;;;;4868299;29;20054;-93
2023/04/03 06:28:16;;;;;;;8.48;2.42;;;;;;;;;;4865061;29;20564;-93
2023/04/03 06:31:09;;;;;;;8.70;2.33;;;;;;;;;;4855686;29;20041;-94
2023/04/03 06:33:41;;;;;;;10.45;2.53;;;;;;;;;;4871896;29;20049;-93
2023/04/03 06:36:08;;;;;;;11.85;2.50;;;;;;;;;;4869760;29;20407;-94
2023/04/03 06:38:44;;;;;;;8.10;2.40;;;;;;;;;;4867212;29;20036;-94
2023/04/03 06:41:14;;;;;;;7.13;2.22;;;;;;;;;;4865003;29;20036;-90
2023/04/03 06:43:43;;;;;;;9.70;2.55;;;;;;;;;;4859540;29;20432;-94
2023/04/03 06:46:27;;;;;;;6.13;2.15;;;;;;;;;;4863845;29;20072;-90
2023/04/03 06:48:59;;;;;;;7.10;1.80;;;;;;;;;;4860495;29;20066;-90
2023/04/03 13:40:11;;;;;;;2.28;1.33;;;;;;;;;;706641;23;20364;-92
2023/04/03 13:42:45;;;;;;;3.42;1.52;;;;;;;;;;4871821;29;20065;-89
2023/04/03 13:45:19;;;;;;;5.20;1.50;;;;;;;;;;4853523;29;20049;-94
2023/04/03 13:58:06;;;;;;;5.90;1.48;;;;;;;;;;4867136;29;20129;-92
2023/04/03 14:01:29;;;;;;;2.28;1.45;;;;;;;;;;4864588;29;20075;-94
2023/04/03 14:04:13;;;;;;;;;;;;;;;;;;;;;
2023/04/03 14:06:45;;;;;;;2.88;1.40;;;;;;;;;;4864070;29;20089;-93
2023/04/03 14:12:53;;;;;;;;;;;;;;;;;;;;;
2023/04/03 17:48:31;;;;;;;4.40;1.30;;;;;;;;;;1016891;23;21596;-90
2023/04/03 17:51:11;;;;;;;8.23;1.38;;;;;;;;;;4881166;29;20052;-89
2023/04/03 17:53:38;;;;;;;6.80;1.30;;;;;;;;;;4887394;29;20481;-88
2023/04/03 17:56:05;;;;;;;4.55;1.33;;;;;;;;;;4870610;29;20424;-88
2023/04/03 17:58:32;;;;;;;3.25;1.30;;;;;;;;;;4890051;29;20421;-89
2023/04/03 18:00:59;;;;;;;1.63;1.08;;;;;;;;;;4886020;29;20035;-89
2023/04/03 18:03:26;;;;;;;3.85;1.55;;;;;;;;;;4884761;29;20453;-90
2023/04/03 18:05:52;;;;;;;1.77;1.08;;;;;;;;;;4871312;29;20044;-87
2023/04/03 18:08:19;;;;;;;2.42;1.02;;;;;;;;;;4885552;29;20037;-88
2023/04/03 18:10:45;;;;;;;2.10;0.95;;;;;;;;;;4883366;29;20040;-89
2023/04/03 18:13:14;;;;;;;3.13;1.33;;;;;;;;;;4868469;29;20057;-88
2023/04/03 18:15:44;;;;;;;2.28;1.30;;;;;;;;;;4863677;29;20032;-88
2023/04/03 18:18:11;;;;;;;5.40;1.30;;;;;;;;;;4895392;29;20044;-89
2023/04/03 18:20:37;;;;;;;2.38;1.38;;;;;;;;;;4880652;29;20036;-89
2023/04/03 18:23:08;;;;;;;6.10;2.00;;;;;;;;;;4879939;29;20462;-89
2023/04/03 18:25:35;;;;;;;3.90;1.60;;;;;;;;;;4883092;29;20127;-88
2023/04/03 18:28:39;;;;;;;3.08;1.42;;;;;;;;;;4888394;29;20020;-95
2023/04/03 18:31:09;;;;;;;3.38;1.65;;;;;;;;;;4896517;29;20064;-89
2023/04/03 18:33:39;;;;;;;4.05;1.70;;;;;;;;;;4896530;29;20509;-88
2023/04/03 18:36:05;;;;;;;6.35;1.88;;;;;;;;;;4865463;29;20025;-88
2023/04/03 18:38:34;;;;;;;7.10;2.75;;;;;;;;;;4874755;29;20366;-88
2023/04/03 18:41:01;;;;;;;6.68;2.90;;;;;;;;;;4862143;29;20045;-88
2023/04/03 18:43:29;;;;;;;7.30;2.80;;;;;;;;;;4871316;29;20298;-88
2023/04/03 18:45:55;;;;;;;8.57;2.55;;;;;;;;;;4881937;29;20032;-88
2023/04/03 18:48:23;;;;;;;11.85;3.53;;;;;;;;;;4874869;29;20040;-89
2023/04/03 18:50:50;;;;;;;9.55;3.97;;;;;;;;;;4880716;29;20048;-89
2023/04/03 18:53:24;;;;;;;11.20;4.20;;;;;;;;;;4880333;29;20625;-89
2023/04/03 18:55:50;;;;;;;9.02;3.40;;;;;;;;;;4892689;29;20071;-88
2023/04/03 18:58:16;;;;;;;4.60;2.30;;;;;;;;;;4880290;29;20036;-89
2023/04/03 19:00:42;;;;;;;7.60;2.38;;;;;;;;;;4879354;29;20045;-89
2023/04/03 19:03:12;;;;;;;2.90;1.80;;;;;;;;;;4882329;29;20764;-89
2023/04/03 19:05:38;;;;;;;5.13;1.63;;;;;;;;;;4894092;29;20051;-90
2023/04/03 19:08:09;;;;;;;5.20;2.42;;;;;;;;;;4877883;29;20735;-90
2023/04/03 19:10:35;;;;;;;3.78;1.63;;;;;;;;;;4878103;29;20029;-89
2023/04/03 19:13:03;;;;;;;4.05;1.85;;;;;;;;;;4879904;29;20059;-88
2023/04/03 19:15:29;;;;;;;5.75;2.03;;;;;;;;;;4879314;29;20044;-88
2023/04/03 19:17:58;;;;;;;8.75;2.28;;;;;;;;;;4868039;29;20056;-88
2023/04/03 19:20:25;;;;;;;8.23;2.28;;;;;;;;;;4872996;29;20036;-88
2023/04/03 19:22:51;;;;;;;3.97;1.80;;;;;;;;;;4880088;29;20036;-88
2023/04/03 19:25:19;;;;;;;15.93;2.20;;;;;;;;;;4896625;29;20166;-88
2023/04/03 19:27:59;;;;;;;;;;;;;;;;;;;;;
2023/04/03 19:30:27;;;;;;;5.38;2.28;;;;;;;;;;4883103;29;20037;-89
2023/04/03 19:32:56;;;;;;;4.63;1.90;;;;;;;;;;4874093;29;20682;-87
2023/04/03 19:35:22;;;;;;;3.60;1.90;;;;;;;;;;4876337;29;20397;-88
2023/04/03 19:37:50;;;;;;;6.28;1.92;;;;;;;;;;4877418;29;20063;-88
2023/04/03 19:40:29;;;;;;;;;;;;;;;;;;;;;
2023/04/03 19:42:56;;;;;;;7.53;2.08;;;;;;;;;;4884446;29;20032;-88
2023/04/03 19:45:25;;;;;;;2.85;1.52;;;;;;;;;;4879644;29;20092;-88
2023/04/03 19:47:51;;;;;;;6.15;1.42;;;;;;;;;;4899769;29;20024;-89
2023/04/03 19:50:23;;;;;;;4.13;1.60;;;;;;;;;;4888693;29;20057;-89
2023/04/03 19:52:53;;;;;;;8.90;1.40;;;;;;;;;;4884719;29;20365;-87
2023/04/03 19:55:20;;;;;;;4.63;1.30;;;;;;;;;;4887250;29;20492;-89
2023/04/03 19:57:47;;;;;;;6.15;1.35;;;;;;;;;;4886239;29;20497;-89
2023/04/03 20:00:14;;;;;;;5.55;1.75;;;;;;;;;;4883984;29;20032;-88
2023/04/03 20:02:46;;;;;;;3.30;1.50;;;;;;;;;;4883597;29;20055;-88
2023/04/03 20:05:16;;;;;;;11.50;1.45;;;;;;;;;;4896012;29;20029;-89
2023/04/03 20:07:46;;;;;;;4.47;1.77;;;;;;;;;;4888014;29;20051;-86
2023/04/03 20:10:17;;;;;;;3.13;1.85;;;;;;;;;;4896777;29;20048;-88
2023/04/03 20:12:47;;;;;;;2.53;1.48;;;;;;;;;;4882991;29;20139;-87
2023/04/03 20:15:18;;;;;;;4.32;1.90;;;;;;;;;;4887694;29;20041;-86
2023/04/03 20:17:53;;;;;;;8.45;2.08;;;;;;;;;;4884448;29;20553;-86
2023/04/03 20:20:23;;;;;;;4.22;2.00;;;;;;;;;;4896693;29;20471;-87
2023/04/03 20:22:52;;;;;;;5.15;2.03;;;;;;;;;;4883049;29;20039;-86
2023/04/03 20:25:18;;;;;;;11.77;2.30;;;;;;;;;;4879850;29;20041;-86
2023/04/03 20:27:55;;;;;;;4.43;1.88;;;;;;;;;;4881738;29;20508;-87
2023/04/03 20:30:24;;;;;;;6.45;2.03;;;;;;;;;;4864471;29;20491;-86
2023/04/03 20:32:52;;;;;;;7.45;2.13;;;;;;;;;;4880869;29;20032;-86
2023/04/03 20:35:21;;;;;;;6.72;1.98;;;;;;;;;;4880612;29;20080;-88
2023/04/03 20:37:47;;;;;;;4.75;2.20;;;;;;;;;;4878333;29;20044;-87
2023/04/03 20:40:14;;;;;;;4.50;2.03;;;;;;;;;;4878541;29;20032;-88
2023/04/03 20:42:40;;;;;;;3.92;1.92;;;;;;;;;;4867179;29;20497;-88
2023/04/03 20:45:06;;;;;;;3.47;2.00;;;;;;;;;;4877313;29;20245;-86
2023/04/03 20:47:46;;;;;;;4.32;1.98;;;;;;;;;;4898073;29;20119;-87
2023/04/03 20:50:21;;;;;;;7.18;2.15;;;;;;;;;;4887842;29;20106;-88
2023/04/03 20:52:48;;;;;;;6.72;2.08;;;;;;;;;;4874073;29;20029;-88
2023/04/03 20:55:16;;;;;;;4.75;1.90;;;;;;;;;;4868582;29;20045;-88
2023/04/03 20:57:42;;;;;;;3.58;1.98;;;;;;;;;;4878303;29;20051;-88
2023/04/03 21:00:30;;;;;;;;;;;;;;;;;;;;;
2023/04/03 21:03:06;;;;;;;6.28;2.35;;;;;;;;;;4877273;29;20029;-87
2023/04/03 21:05:38;;;;;;;3.90;2.10;;;;;;;;;;4889422;29;20040;-86
2023/04/03 21:08:39;;;;;;;7.93;2.03;;;;;;;;;;4878012;29;20037;-87
2023/04/03 21:11:25;;;;;;;9.70;2.28;;;;;;;;;;4860369;29;20033;-87
2023/04/03 21:14:12;;;;;;;6.32;2.72;;;;;;;;;;4865985;29;20093;-87
2023/04/03 21:16:39;;;;;;;6.13;2.90;;;;;;;;;;4869929;29;20040;-87
2023/04/03 21:19:08;;;;;;;5.25;2.30;;;;;;;;;;4874237;29;20064;-87
2023/04/03 21:21:38;;;;;;;5.22;2.15;;;;;;;;;;4887682;29;20036;-89
2023/04/03 21:24:08;;;;;;;5.28;2.10;;;;;;;;;;4875231;29;20105;-88
2023/04/03 21:26:37;;;;;;;8.52;2.25;;;;;;;;;;4873070;29;20041;-88
2023/04/03 21:29:03;;;;;;;6.75;2.55;;;;;;;;;;4879041;29;20051;-86
2023/04/03 21:31:48;;;;;;;8.48;2.47;;;;;;;;;;4874609;29;20147;-87
2023/04/03 21:34:15;;;;;;;13.15;2.75;;;;;;;;;;4870457;29;20048;-86
2023/04/03 21:36:42;;;;;;;6.90;2.50;;;;;;;;;;4875246;29;20093;-86
2023/04/03 21:39:15;;;;;;;7.32;2.55;;;;;;;;;;4874772;29;20045;-87
2023/04/03 21:41:44;;;;;;;10.07;2.67;;;;;;;;;;4875706;29;20029;-87
2023/04/03 21:44:10;;;;;;;4.75;2.17;;;;;;;;;;4874499;29;20040;-88
2023/04/03 21:46:43;;;;;;;12.25;2.78;;;;;;;;;;4868594;29;20028;-87
2023/04/03 21:49:09;;;;;;;7.10;2.58;;;;;;;;;;4888756;29;20636;-86
2023/04/03 21:51:35;;;;;;;10.40;2.65;;;;;;;;;;4868805;29;20047;-88
2023/04/03 21:54:15;;;;;;;5.78;2.67;;;;;;;;;;4857685;29;20029;-85
2023/04/03 21:57:10;;;;;;;6.95;2.78;;;;;;;;;;4852752;29;20069;-86
2023/04/03 21:59:27;;;;;;;;;;;;;;;;;;4841646;29;20041;-88
2023/04/03 22:01:55;;;;;;;15.27;3.85;;;;;;;;;;4842030;29;19998;-86
2023/04/03 22:04:22;;;;;;;8.18;3.53;;;;;;;;;;4839462;29;20038;-87
2023/04/03 22:06:52;;;;;;;10.20;4.40;;;;;;;;;;4855189;29;20418;-88
2023/04/03 22:09:18;;;;;;;10.05;3.88;;;;;;;;;;4826300;29;20046;-87
2023/04/03 22:11:44;;;;;;;6.97;3.03;;;;;;;;;;4845930;29;20407;-87
2023/04/03 22:14:11;;;;;;;11.65;3.13;;;;;;;;;;4846198;29;20030;-87
2023/04/03 22:16:39;;;;;;;7.40;3.28;;;;;;;;;;4843951;29;20567;-86
2023/04/03 22:19:09;;;;;;;10.00;3.60;;;;;;;;;;4842756;29;20110;-87
2023/04/03 22:21:35;;;;;;;6.50;2.63;;;;;;;;;;4854894;29;20038;-86
2023/04/03 22:24:01;;;;;;;13.35;4.03;;;;;;;;;;4832272;29;20041;-86
2023/04/03 22:26:27;;;;;;;11.73;3.45;;;;;;;;;;4846432;29;20040;-87
2023/04/03 22:28:53;;;;;;;6.88;3.17;;;;;;;;;;4859107;29;20067;-88
2023/04/03 22:31:20;;;;;;;7.47;3.78;;;;;;;;;;4859119;29;20038;-87
2023/04/03 22:33:46;;;;;;;12.82;5.60;;;;;;;;;;4856392;29;20048;-88
2023/04/03 22:36:12;;;;;;;16.27;4.28;;;;;;;;;;4857546;29;20037;-87
2023/04/03 22:38:42;;;;;;;6.63;3.97;;;;;;;;;;4857584;29;20037;-88
2023/04/03 22:41:10;;;;;;;7.35;3.60;;;;;;;;;;4843546;29;20025;-87
2023/04/03 22:43:44;;;;;;;8.25;3.55;;;;;;;;;;4866004;29;20033;-87
2023/04/03 22:46:11;;;;;;;8.73;3.38;;;;;;;;;;4858578;29;20443;-87
2023/04/03 22:48:47;;;;;;;7.80;3.60;;;;;;;;;;4863348;29;20034;-87
2023/04/03 22:51:26;;;;;;;11.75;3.42;;;;;;;;;;4877005;29;20045;-90
2023/04/03 22:54:06;;;;;;;7.25;3.75;;;;;;;;;;4891584;29;20049;-89
2023/04/03 22:56:33;;;;;;;10.05;3.75;;;;;;;;;;4876317;29;20048;-86
2023/04/03 22:58:59;;;;;;;7.15;3.17;;;;;;;;;;4875322;29;20044;-88
2023/04/03 23:01:31;;;;;;;11.00;3.65;;;;;;;;;;4878494;29;20525;-88
2023/04/03 23:04:08;;;;;;;8.95;3.70;;;;;;;;;;4862058;29;20481;-86
2023/04/03 23:06:35;;;;;;;8.07;3.45;;;;;;;;;;4879203;29;20067;-87
2023/04/03 23:09:05;;;;;;;9.07;4.43;;;;;;;;;;4880027;29;20093;-87
2023/04/03 23:11:44;;;;;;;5.82;2.90;;;;;;;;;;4876561;29;20048;-88
2023/04/03 23:14:11;;;;;;;9.73;3.58;;;;;;;;;;4880338;29;20093;-87
2023/04/03 23:16:51;;;;;;;9.82;3.58;;;;;;;;;;4876646;29;20651;-95
2023/04/03 23:19:17;;;;;;;13.35;3.15;;;;;;;;;;4910330;29;20048;-95
2023/04/03 23:21:48;;;;;;;12.70;3.55;;;;;;;;;;4898016;29;20032;-95
2023/04/03 23:24:18;;;;;;;10.43;3.60;;;;;;;;;;4880274;29;20630;-95
2023/04/03 23:26:46;;;;;;;7.97;3.33;;;;;;;;;;4905791;29;20021;-95
2023/04/03 23:29:12;;;;;;;10.43;3.47;;;;;;;;;;4896352;29;20088;-95
2023/04/03 23:31:39;;;;;;;11.70;3.33;;;;;;;;;;4891791;29;20041;-95
2023/04/03 23:34:05;;;;;;;7.28;3.55;;;;;;;;;;4893607;29;20031;-94
2023/04/03 23:36:35;;;;;;;9.80;4.07;;;;;;;;;;4895992;29;20069;-96
2023/04/03 23:39:25;;;;;;;10.60;4.07;;;;;;;;;;4905234;29;20429;-95
2023/04/03 23:41:54;;;;;;;9.55;3.35;;;;;;;;;;4889639;29;20251;-95
2023/04/03 23:44:20;;;;;;;15.52;3.60;;;;;;;;;;4896178;29;20040;-96
2023/04/03 23:46:59;;;;;;;7.03;3.13;;;;;;;;;;4909879;29;20021;-95
2023/04/03 23:49:27;;;;;;;9.43;3.20;;;;;;;;;;4894522;29;20020;-96
2023/04/03 23:52:01;;;;;;;10.38;3.60;;;;;;;;;;4885998;29;20041;-96
2023/04/03 23:54:32;;;;;;;7.93;3.28;;;;;;;;;;4900799;29;20060;-95
2023/04/03 23:56:59;;;;;;;8.23;2.95;;;;;;;;;;4893470;29;20063;-96
2023/04/03 23:59:29;;;;;;;11.77;3.45;;;;;;;;;;4912089;29;20025;-94
